Pelican State — WDE4433 — position and weather

sailwx.info

Track history (hours):
 
Tides and Currents Weather Stations Pressure Air Temp Water Temp Dewpoint Dewpoint Depression Visibility Wind Speed Wind Dir Waves Ship Positions

Pelican State

Owner: Crowley Petroleum Serives, Jacksonville, FL. More information available from US FCC via Universal Licensing System and Coast Guard Vessel Documentation Center.

Last reported at 2016-Apr-19 23:31 UTC. Time now 2016-May-02 10:43 UTC.
Position N 25°32' W 079°60'.
Warning: this ship's position is 12 days out of date.

Length 183 m; draft 9 m.

Type: Tanker. MMSI: 367353110.

Date/timePositionNaut miles runAvg speedWind from/ knotsBaromVisibWave heightAir tempDewpointWater temp
2016-Apr-19 23:31N 25°32' W 079°60'1313.2
2016-Apr-19 22:34N 25°44' W 079°59'1413.7
2016-Apr-19 21:33N 25°58' W 079°58'1312.9
2016-Apr-19 20:33N 26°11' W 079°58'1312.9
2016-Apr-19 19:33N 26°24' W 079°57'1312.9
2016-Apr-19 18:33N 26°37' W 079°56'1312.9
2016-Apr-19 17:32N 26°50' W 079°55'1313.1
2016-Apr-19 16:33N 27°03' W 079°54'  
2016-Apr-17 04:34N 38°35' W 074°51'1111.2
2016-Apr-17 03:34N 38°44' W 074°60'1211.8
2016-Apr-17 02:33N 38°55' W 075°06'1414.5
2016-Apr-17 01:33N 39°08' W 075°14'1313.0
2016-Apr-17 00:33N 39°19' W 075°24'1211.5
2016-Apr-16 23:33N 39°27' W 075°34'1010.5
2016-Apr-16 22:33N 39°38' W 075°35'1211.6
2016-Apr-16 21:33N 39°48' W 075°26'2 2.0
2016-Apr-16 20:32N 39°49' W 075°24'0 0.0
2016-Apr-16 19:32N 39°49' W 075°24'0 0.0
2016-Apr-16 18:32N 39°49' W 075°24'0 0.0
2016-Apr-16 17:32N 39°49' W 075°24'0 0.0
2016-Apr-16 16:32N 39°49' W 075°24'0 0.0
2016-Apr-16 15:32N 39°49' W 075°24'0 0.0
2016-Apr-16 14:32N 39°49' W 075°24'0 0.0
2016-Apr-16 13:32N 39°49' W 075°24'0 0.0
2016-Apr-16 12:32N 39°49' W 075°24'0 0.0
2016-Apr-16 11:32N 39°49' W 075°24'0 0.0
2016-Apr-16 10:32N 39°49' W 075°24'0 0.0
2016-Apr-16 09:32N 39°49' W 075°24'0 0.0
2016-Apr-16 08:29N 39°49' W 075°24'0 0.0
2016-Apr-16 07:32N 39°49' W 075°24'0 0.0
2016-Apr-16 06:32N 39°49' W 075°24'0 0.0
2016-Apr-16 05:32N 39°49' W 075°24'0 0.0
2016-Apr-16 04:32N 39°49' W 075°24'0 0.0
2016-Apr-16 03:32N 39°49' W 075°24'0 0.0
2016-Apr-16 02:32N 39°49' W 075°24'0 0.0
2016-Apr-16 01:32N 39°49' W 075°24'0 0.0
2016-Apr-16 00:32N 39°49' W 075°24'0 0.0
2016-Apr-15 23:33N 39°49' W 075°24'3 3.4
2016-Apr-15 22:33N 39°47' W 075°28'1111.0
2016-Apr-15 21:33N 39°37' W 075°35'1312.9
2016-Apr-15 20:33N 39°25' W 075°30'1413.8
2016-Apr-15 19:33N 39°14' W 075°18'1313.2
2016-Apr-15 18:33N 39°03' W 075°10'1313.2
2016-Apr-15 17:33N 38°50' W 075°04'9 8.9
2016-Apr-15 16:33N 38°44' W 074°56'7 7.2
2016-Apr-15 15:33N 38°38' W 074°50'9 8.6
2016-Apr-15 14:33N 38°31' W 074°44'  
2016-Apr-13 04:29N 26°42' W 079°41'1718.6
2016-Apr-13 03:34N 26°25' W 079°43'1918.7
2016-Apr-13 02:33N 26°06' W 079°45'1818.1
2016-Apr-13 01:33N 25°48' W 079°50'2019.5
2016-Apr-13 00:33N 25°29' W 079°52'  
Track history (hours):
 
Tides and Currents Weather Stations Pressure Air Temp Water Temp Dewpoint Dewpoint Depression Visibility Wind Speed Wind Dir Waves Ship Positions

Pelican State

Owner: Crowley Petroleum Serives, Jacksonville, FL. More information available from US FCC via Universal Licensing System and Coast Guard Vessel Documentation Center.

Last reported at 2016-Apr-19 23:31 UTC. Time now 2016-May-02 10:43 UTC.
Position N 25°32' W 079°60'.
Warning: this ship's position is 12 days out of date.

Length 183 m; draft 9 m.

Type: Tanker. MMSI: 367353110.

Date/timePositionNaut miles runAvg speedWind from/ knotsBaromVisibWave heightAir tempDewpointWater temp
2016-Apr-19 23:31N 25°32' W 079°60'1313.2
2016-Apr-19 22:34N 25°44' W 079°59'1413.7
2016-Apr-19 21:33N 25°58' W 079°58'1312.9
2016-Apr-19 20:33N 26°11' W 079°58'1312.9
2016-Apr-19 19:33N 26°24' W 079°57'1312.9
2016-Apr-19 18:33N 26°37' W 079°56'1312.9
2016-Apr-19 17:32N 26°50' W 079°55'1313.1
2016-Apr-19 16:33N 27°03' W 079°54'  
2016-Apr-17 04:34N 38°35' W 074°51'1111.2
2016-Apr-17 03:34N 38°44' W 074°60'1211.8
2016-Apr-17 02:33N 38°55' W 075°06'1414.5
2016-Apr-17 01:33N 39°08' W 075°14'1313.0
2016-Apr-17 00:33N 39°19' W 075°24'1211.5
2016-Apr-16 23:33N 39°27' W 075°34'1010.5
2016-Apr-16 22:33N 39°38' W 075°35'1211.6
2016-Apr-16 21:33N 39°48' W 075°26'2 2.0
2016-Apr-16 20:32N 39°49' W 075°24'0 0.0
2016-Apr-16 19:32N 39°49' W 075°24'0 0.0
2016-Apr-16 18:32N 39°49' W 075°24'0 0.0
2016-Apr-16 17:32N 39°49' W 075°24'0 0.0
2016-Apr-16 16:32N 39°49' W 075°24'0 0.0
2016-Apr-16 15:32N 39°49' W 075°24'0 0.0
2016-Apr-16 14:32N 39°49' W 075°24'0 0.0
2016-Apr-16 13:32N 39°49' W 075°24'0 0.0
2016-Apr-16 12:32N 39°49' W 075°24'0 0.0
2016-Apr-16 11:32N 39°49' W 075°24'0 0.0
2016-Apr-16 10:32N 39°49' W 075°24'0 0.0
2016-Apr-16 09:32N 39°49' W 075°24'0 0.0
2016-Apr-16 08:29N 39°49' W 075°24'0 0.0
2016-Apr-16 07:32N 39°49' W 075°24'0 0.0
2016-Apr-16 06:32N 39°49' W 075°24'0 0.0
2016-Apr-16 05:32N 39°49' W 075°24'0 0.0
2016-Apr-16 04:32N 39°49' W 075°24'0 0.0
2016-Apr-16 03:32N 39°49' W 075°24'0 0.0
2016-Apr-16 02:32N 39°49' W 075°24'0 0.0
2016-Apr-16 01:32N 39°49' W 075°24'0 0.0
2016-Apr-16 00:32N 39°49' W 075°24'0 0.0
2016-Apr-15 23:33N 39°49' W 075°24'3 3.4
2016-Apr-15 22:33N 39°47' W 075°28'1111.0
2016-Apr-15 21:33N 39°37' W 075°35'1312.9
2016-Apr-15 20:33N 39°25' W 075°30'1413.8
2016-Apr-15 19:33N 39°14' W 075°18'1313.2
2016-Apr-15 18:33N 39°03' W 075°10'1313.2
2016-Apr-15 17:33N 38°50' W 075°04'9 8.9
2016-Apr-15 16:33N 38°44' W 074°56'7 7.2
2016-Apr-15 15:33N 38°38' W 074°50'9 8.6
2016-Apr-15 14:33N 38°31' W 074°44'  
2016-Apr-13 04:29N 26°42' W 079°41'1718.6
2016-Apr-13 03:34N 26°25' W 079°43'1918.7
2016-Apr-13 02:33N 26°06' W 079°45'1818.1
2016-Apr-13 01:33N 25°48' W 079°50'2019.5
2016-Apr-13 00:33N 25°29' W 079°52'  

Dump ship's entire track history